Albertville, Wisconsin
Current Conditions -  °F | °C
As of 10:35 AM on Saturday 22 Nov 2014 (Local Time) from KLUM Reporting Station
Haze Haze  
Wind Chill: 30°   Ceiling: 600
Heat Index: 36°   Visibility: 4mi
Dew Point: 34°   Wind: 7mph
Humidity: 92%   Direction: 200°SSW
Pressure: 29.78"   Gusts: NA
Location:  45.0099°N, 91.7075°W
Report Text: KLUM 221635Z AUTO 20006KT 4SM BR OVC006 02/01 A2978 RMK AO2 T00200009
Loading
Personal Weather Stations






























Interactive Weather Map New forecast layout! Learn more

10-Day Weather Forecast

Advertisements
Track Severe Weather on mobile